sensor_id;sensor_type;location;lat;lon;timestamp;P1;durP1;ratioP1;P2;durP2;ratioP2
21492;SDS011;10908;50.690;4.400;2022-11-23T00:01:34;11.75;;;1.70;;
21492;SDS011;10908;50.690;4.400;2022-11-23T00:04:05;14.18;;;1.73;;
21492;SDS011;10908;50.690;4.400;2022-11-23T00:06:32;13.27;;;1.42;;
21492;SDS011;10908;50.690;4.400;2022-11-23T00:08:58;15.07;;;1.85;;
21492;SDS011;10908;50.690;4.400;2022-11-23T00:11:25;14.80;;;1.75;;
21492;SDS011;10908;50.690;4.400;2022-11-23T00:13:51;11.55;;;1.80;;
21492;SDS011;10908;50.690;4.400;2022-11-23T00:16:19;12.55;;;1.67;;
21492;SDS011;10908;50.690;4.400;2022-11-23T00:18:51;14.63;;;1.80;;
21492;SDS011;10908;50.690;4.400;2022-11-23T00:21:18;13.73;;;1.77;;
21492;SDS011;10908;50.690;4.400;2022-11-23T00:23:45;10.77;;;1.63;;
21492;SDS011;10908;50.690;4.400;2022-11-23T00:26:11;13.02;;;1.95;;
21492;SDS011;10908;50.690;4.400;2022-11-23T00:28:37;12.88;;;1.73;;
21492;SDS011;10908;50.690;4.400;2022-11-23T00:31:14;10.10;;;1.50;;
21492;SDS011;10908;50.690;4.400;2022-11-23T00:33:42;14.23;;;2.08;;
21492;SDS011;10908;50.690;4.400;2022-11-23T00:36:13;19.42;;;1.88;;
21492;SDS011;10908;50.690;4.400;2022-11-23T00:38:40;13.25;;;2.03;;
21492;SDS011;10908;50.690;4.400;2022-11-23T00:41:07;14.30;;;1.80;;
21492;SDS011;10908;50.690;4.400;2022-11-23T00:43:37;13.82;;;2.17;;
21492;SDS011;10908;50.690;4.400;2022-11-23T00:46:14;12.25;;;1.77;;
21492;SDS011;10908;50.690;4.400;2022-11-23T00:48:41;14.10;;;1.95;;
21492;SDS011;10908;50.690;4.400;2022-11-23T00:51:08;13.95;;;1.80;;
21492;SDS011;10908;50.690;4.400;2022-11-23T00:53:35;12.32;;;1.40;;
21492;SDS011;10908;50.690;4.400;2022-11-23T00:56:01;12.25;;;1.55;;
21492;SDS011;10908;50.690;4.400;2022-11-23T00:58:26;12.18;;;1.75;;
21492;SDS011;10908;50.690;4.400;2022-11-23T01:00:59;14.38;;;1.95;;
21492;SDS011;10908;50.690;4.400;2022-11-23T01:03:26;12.77;;;1.73;;
21492;SDS011;10908;50.690;4.400;2022-11-23T01:05:53;11.73;;;1.98;;
21492;SDS011;10908;50.690;4.400;2022-11-23T01:08:18;15.13;;;2.00;;
21492;SDS011;10908;50.690;4.400;2022-11-23T01:10:44;12.63;;;1.80;;
21492;SDS011;10908;50.690;4.400;2022-11-23T01:13:09;17.92;;;2.10;;
21492;SDS011;10908;50.690;4.400;2022-11-23T01:15:35;18.50;;;2.30;;
21492;SDS011;10908;50.690;4.400;2022-11-23T01:18:01;14.40;;;2.28;;
21492;SDS011;10908;50.690;4.400;2022-11-23T01:20:26;12.63;;;1.98;;
21492;SDS011;10908;50.690;4.400;2022-11-23T01:22:52;13.98;;;2.00;;
21492;SDS011;10908;50.690;4.400;2022-11-23T01:25:17;14.23;;;2.65;;
21492;SDS011;10908;50.690;4.400;2022-11-23T01:27:43;11.93;;;1.52;;
21492;SDS011;10908;50.690;4.400;2022-11-23T01:30:09;18.98;;;1.90;;
21492;SDS011;10908;50.690;4.400;2022-11-23T01:32:35;13.85;;;1.67;;
21492;SDS011;10908;50.690;4.400;2022-11-23T01:35:00;13.85;;;1.95;;
21492;SDS011;10908;50.690;4.400;2022-11-23T01:37:26;10.10;;;1.73;;
21492;SDS011;10908;50.690;4.400;2022-11-23T01:39:52;13.85;;;2.10;;
21492;SDS011;10908;50.690;4.400;2022-11-23T01:42:17;17.45;;;2.45;;
21492;SDS011;10908;50.690;4.400;2022-11-23T01:44:43;11.15;;;1.92;;
21492;SDS011;10908;50.690;4.400;2022-11-23T01:47:08;10.20;;;1.85;;
21492;SDS011;10908;50.690;4.400;2022-11-23T01:49:39;11.38;;;2.05;;
21492;SDS011;10908;50.690;4.400;2022-11-23T01:52:17;13.10;;;1.55;;
21492;SDS011;10908;50.690;4.400;2022-11-23T01:54:50;11.25;;;1.70;;
21492;SDS011;10908;50.690;4.400;2022-11-23T01:57:25;11.75;;;1.55;;
21492;SDS011;10908;50.690;4.400;2022-11-23T01:59:56;10.65;;;1.67;;
21492;SDS011;10908;50.690;4.400;2022-11-23T02:02:22;14.43;;;1.73;;
21492;SDS011;10908;50.690;4.400;2022-11-23T02:04:51;15.35;;;1.85;;
21492;SDS011;10908;50.690;4.400;2022-11-23T02:07:19;13.75;;;2.05;;
21492;SDS011;10908;50.690;4.400;2022-11-23T02:09:46;13.30;;;2.15;;
21492;SDS011;10908;50.690;4.400;2022-11-23T02:12:12;12.93;;;1.85;;
21492;SDS011;10908;50.690;4.400;2022-11-23T02:14:39;16.60;;;2.38;;
21492;SDS011;10908;50.690;4.400;2022-11-23T02:17:05;13.40;;;2.08;;
21492;SDS011;10908;50.690;4.400;2022-11-23T02:19:35;17.10;;;2.28;;
21492;SDS011;10908;50.690;4.400;2022-11-23T02:22:13;13.10;;;1.95;;
21492;SDS011;10908;50.690;4.400;2022-11-23T02:24:47;13.20;;;1.88;;
21492;SDS011;10908;50.690;4.400;2022-11-23T02:27:16;16.98;;;2.63;;
21492;SDS011;10908;50.690;4.400;2022-11-23T02:29:42;13.25;;;2.03;;
21492;SDS011;10908;50.690;4.400;2022-11-23T02:32:08;15.10;;;1.80;;
21492;SDS011;10908;50.690;4.400;2022-11-23T02:34:33;17.63;;;2.15;;
21492;SDS011;10908;50.690;4.400;2022-11-23T02:36:59;15.05;;;2.33;;
21492;SDS011;10908;50.690;4.400;2022-11-23T02:39:32;18.85;;;1.85;;
21492;SDS011;10908;50.690;4.400;2022-11-23T02:42:01;18.67;;;2.10;;
21492;SDS011;10908;50.690;4.400;2022-11-23T02:44:30;14.13;;;2.30;;
21492;SDS011;10908;50.690;4.400;2022-11-23T02:46:58;17.15;;;2.20;;
21492;SDS011;10908;50.690;4.400;2022-11-23T02:49:24;13.80;;;2.00;;
21492;SDS011;10908;50.690;4.400;2022-11-23T02:51:50;14.10;;;2.20;;
21492;SDS011;10908;50.690;4.400;2022-11-23T02:54:16;14.40;;;2.17;;
21492;SDS011;10908;50.690;4.400;2022-11-23T02:56:42;10.93;;;2.35;;
21492;SDS011;10908;50.690;4.400;2022-11-23T02:59:07;16.85;;;2.03;;
21492;SDS011;10908;50.690;4.400;2022-11-23T03:01:33;16.05;;;3.00;;
21492;SDS011;10908;50.690;4.400;2022-11-23T03:03:58;17.98;;;2.67;;
21492;SDS011;10908;50.690;4.400;2022-11-23T03:06:24;13.13;;;2.17;;
21492;SDS011;10908;50.690;4.400;2022-11-23T03:08:50;19.17;;;2.08;;
21492;SDS011;10908;50.690;4.400;2022-11-23T03:11:15;13.43;;;2.10;;
21492;SDS011;10908;50.690;4.400;2022-11-23T03:13:41;13.55;;;2.15;;
21492;SDS011;10908;50.690;4.400;2022-11-23T03:16:07;13.70;;;2.17;;
21492;SDS011;10908;50.690;4.400;2022-11-23T03:18:32;12.75;;;2.13;;
21492;SDS011;10908;50.690;4.400;2022-11-23T03:21:02;14.40;;;2.28;;
21492;SDS011;10908;50.690;4.400;2022-11-23T03:23:29;13.23;;;2.00;;
21492;SDS011;10908;50.690;4.400;2022-11-23T03:25:55;17.27;;;2.10;;
21492;SDS011;10908;50.690;4.400;2022-11-23T03:28:22;17.88;;;2.40;;
21492;SDS011;10908;50.690;4.400;2022-11-23T03:30:48;18.50;;;2.58;;
21492;SDS011;10908;50.690;4.400;2022-11-23T03:33:13;13.55;;;2.38;;
21492;SDS011;10908;50.690;4.400;2022-11-23T03:35:39;22.95;;;2.00;;
21492;SDS011;10908;50.690;4.400;2022-11-23T03:38:05;12.02;;;2.58;;
21492;SDS011;10908;50.690;4.400;2022-11-23T03:40:30;17.25;;;2.05;;
21492;SDS011;10908;50.690;4.400;2022-11-23T03:42:56;18.73;;;2.58;;
21492;SDS011;10908;50.690;4.400;2022-11-23T03:45:21;17.38;;;1.83;;
21492;SDS011;10908;50.690;4.400;2022-11-23T03:47:47;15.80;;;1.98;;
21492;SDS011;10908;50.690;4.400;2022-11-23T03:50:13;15.68;;;2.03;;
21492;SDS011;10908;50.690;4.400;2022-11-23T03:52:38;15.95;;;2.42;;
21492;SDS011;10908;50.690;4.400;2022-11-23T03:55:04;18.70;;;2.90;;
21492;SDS011;10908;50.690;4.400;2022-11-23T03:57:30;15.35;;;2.20;;
21492;SDS011;10908;50.690;4.400;2022-11-23T03:59:56;16.17;;;2.30;;
21492;SDS011;10908;50.690;4.400;2022-11-23T04:02:21;17.75;;;2.25;;
21492;SDS011;10908;50.690;4.400;2022-11-23T04:04:47;18.73;;;2.38;;
21492;SDS011;10908;50.690;4.400;2022-11-23T04:07:12;16.10;;;2.13;;
21492;SDS011;10908;50.690;4.400;2022-11-23T04:09:38;13.40;;;2.58;;
21492;SDS011;10908;50.690;4.400;2022-11-23T04:12:03;10.85;;;1.63;;
21492;SDS011;10908;50.690;4.400;2022-11-23T04:14:29;14.55;;;2.40;;
21492;SDS011;10908;50.690;4.400;2022-11-23T04:16:55;13.02;;;2.08;;
21492;SDS011;10908;50.690;4.400;2022-11-23T04:19:20;16.00;;;2.35;;
21492;SDS011;10908;50.690;4.400;2022-11-23T04:21:46;17.08;;;2.10;;
21492;SDS011;10908;50.690;4.400;2022-11-23T04:24:12;12.70;;;1.90;;
21492;SDS011;10908;50.690;4.400;2022-11-23T04:26:37;14.90;;;1.77;;
21492;SDS011;10908;50.690;4.400;2022-11-23T04:29:04;19.27;;;1.90;;
21492;SDS011;10908;50.690;4.400;2022-11-23T04:31:30;13.60;;;2.05;;
21492;SDS011;10908;50.690;4.400;2022-11-23T04:33:56;20.70;;;2.30;;
21492;SDS011;10908;50.690;4.400;2022-11-23T04:36:22;18.23;;;2.67;;
21492;SDS011;10908;50.690;4.400;2022-11-23T04:38:48;17.30;;;2.05;;
21492;SDS011;10908;50.690;4.400;2022-11-23T04:41:14;15.23;;;2.20;;
21492;SDS011;10908;50.690;4.400;2022-11-23T04:43:40;17.58;;;2.15;;
21492;SDS011;10908;50.690;4.400;2022-11-23T04:46:05;18.30;;;2.28;;
21492;SDS011;10908;50.690;4.400;2022-11-23T04:48:31;18.25;;;1.90;;
21492;SDS011;10908;50.690;4.400;2022-11-23T04:50:57;15.48;;;2.60;;
21492;SDS011;10908;50.690;4.400;2022-11-23T04:53:23;13.98;;;1.80;;
21492;SDS011;10908;50.690;4.400;2022-11-23T04:55:48;22.30;;;2.60;;
21492;SDS011;10908;50.690;4.400;2022-11-23T04:58:14;17.50;;;2.22;;
21492;SDS011;10908;50.690;4.400;2022-11-23T05:00:40;18.05;;;1.95;;
21492;SDS011;10908;50.690;4.400;2022-11-23T05:03:05;20.80;;;2.03;;
21492;SDS011;10908;50.690;4.400;2022-11-23T05:05:31;13.63;;;2.33;;
21492;SDS011;10908;50.690;4.400;2022-11-23T05:07:56;18.08;;;1.92;;
21492;SDS011;10908;50.690;4.400;2022-11-23T05:10:23;13.40;;;1.90;;
21492;SDS011;10908;50.690;4.400;2022-11-23T05:12:49;13.02;;;1.92;;
21492;SDS011;10908;50.690;4.400;2022-11-23T05:15:14;15.77;;;2.05;;
21492;SDS011;10908;50.690;4.400;2022-11-23T05:17:40;12.80;;;2.17;;
21492;SDS011;10908;50.690;4.400;2022-11-23T05:20:06;13.57;;;1.95;;
21492;SDS011;10908;50.690;4.400;2022-11-23T05:22:32;11.05;;;1.88;;
21492;SDS011;10908;50.690;4.400;2022-11-23T05:24:58;17.08;;;1.90;;
21492;SDS011;10908;50.690;4.400;2022-11-23T05:27:24;16.20;;;2.10;;
21492;SDS011;10908;50.690;4.400;2022-11-23T05:29:49;16.17;;;2.10;;
21492;SDS011;10908;50.690;4.400;2022-11-23T05:32:15;17.77;;;2.30;;
21492;SDS011;10908;50.690;4.400;2022-11-23T05:34:41;10.57;;;1.70;;
21492;SDS011;10908;50.690;4.400;2022-11-23T05:37:06;13.93;;;1.77;;
21492;SDS011;10908;50.690;4.400;2022-11-23T05:39:32;14.95;;;1.90;;
21492;SDS011;10908;50.690;4.400;2022-11-23T05:41:58;20.30;;;2.17;;
21492;SDS011;10908;50.690;4.400;2022-11-23T05:44:23;18.63;;;2.60;;
21492;SDS011;10908;50.690;4.400;2022-11-23T05:46:49;18.67;;;2.45;;
21492;SDS011;10908;50.690;4.400;2022-11-23T05:49:15;17.65;;;1.95;;
21492;SDS011;10908;50.690;4.400;2022-11-23T05:51:40;16.75;;;2.50;;
21492;SDS011;10908;50.690;4.400;2022-11-23T05:54:06;17.02;;;2.08;;
21492;SDS011;10908;50.690;4.400;2022-11-23T05:56:31;17.70;;;2.17;;
21492;SDS011;10908;50.690;4.400;2022-11-23T05:58:57;20.65;;;2.50;;
21492;SDS011;10908;50.690;4.400;2022-11-23T06:01:23;13.18;;;2.08;;
21492;SDS011;10908;50.690;4.400;2022-11-23T06:03:49;14.07;;;1.88;;
21492;SDS011;10908;50.690;4.400;2022-11-23T06:06:15;15.23;;;2.10;;
21492;SDS011;10908;50.690;4.400;2022-11-23T06:08:41;15.73;;;1.90;;
21492;SDS011;10908;50.690;4.400;2022-11-23T06:11:06;17.67;;;1.92;;
21492;SDS011;10908;50.690;4.400;2022-11-23T06:13:32;15.05;;;2.00;;
21492;SDS011;10908;50.690;4.400;2022-11-23T06:15:58;17.02;;;2.60;;
21492;SDS011;10908;50.690;4.400;2022-11-23T06:18:23;13.10;;;1.70;;
21492;SDS011;10908;50.690;4.400;2022-11-23T06:20:49;15.15;;;2.47;;
21492;SDS011;10908;50.690;4.400;2022-11-23T06:23:14;18.05;;;2.05;;
21492;SDS011;10908;50.690;4.400;2022-11-23T06:25:40;14.65;;;2.13;;
21492;SDS011;10908;50.690;4.400;2022-11-23T06:28:06;12.55;;;2.00;;
21492;SDS011;10908;50.690;4.400;2022-11-23T06:30:31;20.10;;;2.50;;
21492;SDS011;10908;50.690;4.400;2022-11-23T06:32:57;18.52;;;3.03;;
21492;SDS011;10908;50.690;4.400;2022-11-23T06:35:26;15.35;;;2.03;;
21492;SDS011;10908;50.690;4.400;2022-11-23T06:37:51;18.13;;;2.28;;
21492;SDS011;10908;50.690;4.400;2022-11-23T06:40:18;21.30;;;2.78;;
21492;SDS011;10908;50.690;4.400;2022-11-23T06:42:45;13.20;;;2.10;;
21492;SDS011;10908;50.690;4.400;2022-11-23T06:45:11;17.27;;;2.78;;
21492;SDS011;10908;50.690;4.400;2022-11-23T06:47:37;17.60;;;2.30;;
21492;SDS011;10908;50.690;4.400;2022-11-23T06:50:03;15.13;;;2.58;;
21492;SDS011;10908;50.690;4.400;2022-11-23T06:52:29;17.58;;;1.95;;
21492;SDS011;10908;50.690;4.400;2022-11-23T06:54:55;16.08;;;2.05;;
21492;SDS011;10908;50.690;4.400;2022-11-23T06:57:20;13.07;;;2.30;;
21492;SDS011;10908;50.690;4.400;2022-11-23T06:59:46;13.07;;;1.95;;
21492;SDS011;10908;50.690;4.400;2022-11-23T07:02:12;16.90;;;2.53;;
21492;SDS011;10908;50.690;4.400;2022-11-23T07:04:38;14.45;;;2.13;;
21492;SDS011;10908;50.690;4.400;2022-11-23T07:07:05;15.68;;;2.70;;
21492;SDS011;10908;50.690;4.400;2022-11-23T07:09:32;16.42;;;2.20;;
21492;SDS011;10908;50.690;4.400;2022-11-23T07:11:58;17.45;;;2.90;;
21492;SDS011;10908;50.690;4.400;2022-11-23T07:14:23;23.63;;;3.08;;
21492;SDS011;10908;50.690;4.400;2022-11-23T07:16:49;13.65;;;2.60;;
21492;SDS011;10908;50.690;4.400;2022-11-23T07:19:15;22.13;;;3.30;;
21492;SDS011;10908;50.690;4.400;2022-11-23T07:21:40;17.65;;;2.47;;
21492;SDS011;10908;50.690;4.400;2022-11-23T07:24:06;14.35;;;2.47;;
21492;SDS011;10908;50.690;4.400;2022-11-23T07:26:32;14.00;;;2.50;;
21492;SDS011;10908;50.690;4.400;2022-11-23T07:28:57;21.38;;;3.08;;
21492;SDS011;10908;50.690;4.400;2022-11-23T07:31:23;15.18;;;2.80;;
21492;SDS011;10908;50.690;4.400;2022-11-23T07:33:49;19.80;;;2.80;;
21492;SDS011;10908;50.690;4.400;2022-11-23T07:36:14;17.45;;;3.22;;
21492;SDS011;10908;50.690;4.400;2022-11-23T07:38:40;11.95;;;2.78;;
21492;SDS011;10908;50.690;4.400;2022-11-23T07:41:07;18.95;;;3.13;;
21492;SDS011;10908;50.690;4.400;2022-11-23T07:43:33;17.75;;;3.60;;
21492;SDS011;10908;50.690;4.400;2022-11-23T07:45:58;15.95;;;3.08;;
21492;SDS011;10908;50.690;4.400;2022-11-23T07:48:24;15.00;;;3.10;;
21492;SDS011;10908;50.690;4.400;2022-11-23T07:50:53;19.75;;;2.75;;
21492;SDS011;10908;50.690;4.400;2022-11-23T07:53:19;14.75;;;2.90;;
21492;SDS011;10908;50.690;4.400;2022-11-23T07:55:45;13.13;;;2.50;;
21492;SDS011;10908;50.690;4.400;2022-11-23T07:58:11;15.60;;;2.50;;
21492;SDS011;10908;50.690;4.400;2022-11-23T08:00:36;13.10;;;2.65;;
21492;SDS011;10908;50.690;4.400;2022-11-23T08:03:03;15.40;;;2.97;;
21492;SDS011;10908;50.690;4.400;2022-11-23T08:05:32;11.65;;;1.98;;
21492;SDS011;10908;50.690;4.400;2022-11-23T08:07:59;11.35;;;2.25;;
21492;SDS011;10908;50.690;4.400;2022-11-23T08:10:29;14.45;;;2.55;;
21492;SDS011;10908;50.690;4.400;2022-11-23T08:12:56;16.00;;;2.85;;
21492;SDS011;10908;50.690;4.400;2022-11-23T08:15:23;12.35;;;2.20;;
21492;SDS011;10908;50.690;4.400;2022-11-23T08:17:52;14.40;;;2.55;;
21492;SDS011;10908;50.690;4.400;2022-11-23T08:20:19;13.90;;;2.67;;
21492;SDS011;10908;50.690;4.400;2022-11-23T08:22:45;12.00;;;2.47;;
21492;SDS011;10908;50.690;4.400;2022-11-23T08:25:10;16.05;;;3.17;;
21492;SDS011;10908;50.690;4.400;2022-11-23T08:27:36;11.60;;;2.22;;
21492;SDS011;10908;50.690;4.400;2022-11-23T08:30:02;10.90;;;2.60;;
21492;SDS011;10908;50.690;4.400;2022-11-23T08:32:28;17.23;;;3.00;;
21492;SDS011;10908;50.690;4.400;2022-11-23T08:34:53;17.60;;;3.05;;
21492;SDS011;10908;50.690;4.400;2022-11-23T08:37:19;16.33;;;2.78;;
21492;SDS011;10908;50.690;4.400;2022-11-23T08:39:45;10.00;;;2.83;;
21492;SDS011;10908;50.690;4.400;2022-11-23T08:42:10;13.15;;;2.65;;
21492;SDS011;10908;50.690;4.400;2022-11-23T08:44:36;14.23;;;2.65;;
21492;SDS011;10908;50.690;4.400;2022-11-23T08:47:01;12.40;;;2.70;;
21492;SDS011;10908;50.690;4.400;2022-11-23T08:49:27;7.32;;;2.42;;
21492;SDS011;10908;50.690;4.400;2022-11-23T08:51:53;11.20;;;2.70;;
21492;SDS011;10908;50.690;4.400;2022-11-23T08:54:18;13.75;;;2.70;;
21492;SDS011;10908;50.690;4.400;2022-11-23T08:56:44;16.88;;;2.90;;
21492;SDS011;10908;50.690;4.400;2022-11-23T08:59:10;14.52;;;2.80;;
21492;SDS011;10908;50.690;4.400;2022-11-23T09:01:36;10.80;;;2.53;;
21492;SDS011;10908;50.690;4.400;2022-11-23T09:04:02;12.02;;;3.10;;
21492;SDS011;10908;50.690;4.400;2022-11-23T09:06:31;10.88;;;2.88;;
21492;SDS011;10908;50.690;4.400;2022-11-23T09:08:57;11.27;;;2.92;;
21492;SDS011;10908;50.690;4.400;2022-11-23T09:11:23;14.45;;;2.72;;
21492;SDS011;10908;50.690;4.400;2022-11-23T09:13:50;11.50;;;2.63;;
21492;SDS011;10908;50.690;4.400;2022-11-23T09:16:16;15.30;;;3.00;;
21492;SDS011;10908;50.690;4.400;2022-11-23T09:18:42;8.60;;;2.28;;
21492;SDS011;10908;50.690;4.400;2022-11-23T09:21:08;10.30;;;2.65;;
21492;SDS011;10908;50.690;4.400;2022-11-23T09:23:34;12.40;;;2.40;;
21492;SDS011;10908;50.690;4.400;2022-11-23T09:26:01;10.88;;;2.58;;
21492;SDS011;10908;50.690;4.400;2022-11-23T09:28:28;12.55;;;2.45;;
21492;SDS011;10908;50.690;4.400;2022-11-23T09:30:54;7.38;;;2.15;;
21492;SDS011;10908;50.690;4.400;2022-11-23T09:33:21;10.48;;;2.50;;
21492;SDS011;10908;50.690;4.400;2022-11-23T09:35:58;14.52;;;2.60;;
21492;SDS011;10908;50.690;4.400;2022-11-23T09:38:25;11.10;;;2.95;;
21492;SDS011;10908;50.690;4.400;2022-11-23T09:40:59;8.90;;;3.03;;
21492;SDS011;10908;50.690;4.400;2022-11-23T09:43:42;13.43;;;3.38;;
21492;SDS011;10908;50.690;4.400;2022-11-23T09:49:26;9.38;;;2.33;;
21492;SDS011;10908;50.690;4.400;2022-11-23T09:52:06;10.68;;;2.40;;
21492;SDS011;10908;50.690;4.400;2022-11-23T09:54:38;9.52;;;2.20;;
21492;SDS011;10908;50.690;4.400;2022-11-23T09:57:05;9.18;;;2.30;;
21492;SDS011;10908;50.690;4.400;2022-11-23T09:59:40;7.40;;;1.95;;
21492;SDS011;10908;50.690;4.400;2022-11-23T10:02:29;8.25;;;2.05;;
21492;SDS011;10908;50.690;4.400;2022-11-23T10:04:59;9.95;;;2.08;;
21492;SDS011;10908;50.690;4.400;2022-11-23T10:07:38;9.35;;;1.98;;
21492;SDS011;10908;50.690;4.400;2022-11-23T10:13:34;8.60;;;1.83;;
21492;SDS011;10908;50.690;4.400;2022-11-23T10:21:35;8.07;;;1.60;;
21492;SDS011;10908;50.690;4.400;2022-11-23T10:24:25;6.57;;;1.70;;
21492;SDS011;10908;50.690;4.400;2022-11-23T10:26:56;8.32;;;1.67;;
21492;SDS011;10908;50.690;4.400;2022-11-23T10:31:51;10.35;;;1.70;;
21492;SDS011;10908;50.690;4.400;2022-11-23T10:37:13;8.95;;;1.75;;
21492;SDS011;10908;50.690;4.400;2022-11-23T10:39:40;7.18;;;1.40;;
21492;SDS011;10908;50.690;4.400;2022-11-23T10:42:20;5.80;;;1.25;;
21492;SDS011;10908;50.690;4.400;2022-11-23T10:44:53;7.07;;;1.30;;
21492;SDS011;10908;50.690;4.400;2022-11-23T10:53:11;10.98;;;1.58;;
21492;SDS011;10908;50.690;4.400;2022-11-23T11:01:14;13.70;;;2.05;;
21492;SDS011;10908;50.690;4.400;2022-11-23T11:03:43;10.02;;;1.58;;
21492;SDS011;10908;50.690;4.400;2022-11-23T11:06:09;10.40;;;1.95;;
21492;SDS011;10908;50.690;4.400;2022-11-23T11:08:44;10.68;;;1.40;;
21492;SDS011;10908;50.690;4.400;2022-11-23T11:11:28;6.72;;;1.33;;
21492;SDS011;10908;50.690;4.400;2022-11-23T11:14:05;8.55;;;1.58;;
21492;SDS011;10908;50.690;4.400;2022-11-23T11:19:31;7.72;;;1.30;;
21492;SDS011;10908;50.690;4.400;2022-11-23T11:21:59;10.80;;;1.60;;
21492;SDS011;10908;50.690;4.400;2022-11-23T11:24:30;7.03;;;1.08;;
21492;SDS011;10908;50.690;4.400;2022-11-23T11:27:03;5.88;;;1.20;;
21492;SDS011;10908;50.690;4.400;2022-11-23T11:32:05;4.72;;;0.93;;
21492;SDS011;10908;50.690;4.400;2022-11-23T11:40:09;7.22;;;1.25;;
21492;SDS011;10908;50.690;4.400;2022-11-23T11:45:23;3.72;;;0.88;;
21492;SDS011;10908;50.690;4.400;2022-11-23T11:47:59;6.32;;;1.08;;
21492;SDS011;10908;50.690;4.400;2022-11-23T11:50:33;7.55;;;0.90;;
21492;SDS011;10908;50.690;4.400;2022-11-23T11:53:14;3.72;;;0.70;;
21492;SDS011;10908;50.690;4.400;2022-11-23T11:56:02;6.72;;;1.15;;
21492;SDS011;10908;50.690;4.400;2022-11-23T11:58:35;5.28;;;0.88;;
21492;SDS011;10908;50.690;4.400;2022-11-23T12:01:16;5.65;;;0.75;;
21492;SDS011;10908;50.690;4.400;2022-11-23T12:04:05;9.48;;;0.98;;
21492;SDS011;10908;50.690;4.400;2022-11-23T12:06:41;4.57;;;0.80;;
21492;SDS011;10908;50.690;4.400;2022-11-23T12:09:14;4.38;;;0.90;;
21492;SDS011;10908;50.690;4.400;2022-11-23T12:11:42;4.07;;;0.80;;
21492;SDS011;10908;50.690;4.400;2022-11-23T12:14:10;3.55;;;0.70;;
21492;SDS011;10908;50.690;4.400;2022-11-23T12:22:02;4.35;;;1.17;;
21492;SDS011;10908;50.690;4.400;2022-11-23T12:27:54;5.72;;;1.17;;
21492;SDS011;10908;50.690;4.400;2022-11-23T12:30:46;3.15;;;0.60;;
21492;SDS011;10908;50.690;4.400;2022-11-23T12:57:02;6.55;;;1.10;;
21492;SDS011;10908;50.690;4.400;2022-11-23T12:59:34;5.95;;;1.35;;
21492;SDS011;10908;50.690;4.400;2022-11-23T13:02:10;5.60;;;1.27;;
21492;SDS011;10908;50.690;4.400;2022-11-23T13:04:47;7.93;;;1.10;;
21492;SDS011;10908;50.690;4.400;2022-11-23T13:23:58;6.20;;;1.50;;
21492;SDS011;10908;50.690;4.400;2022-11-23T13:26:27;5.25;;;1.30;;
21492;SDS011;10908;50.690;4.400;2022-11-23T13:28:56;7.50;;;1.60;;
21492;SDS011;10908;50.690;4.400;2022-11-23T13:33:56;5.65;;;1.60;;
21492;SDS011;10908;50.690;4.400;2022-11-23T13:38:59;5.85;;;1.40;;
21492;SDS011;10908;50.690;4.400;2022-11-23T13:47:06;8.63;;;1.50;;
21492;SDS011;10908;50.690;4.400;2022-11-23T13:49:45;5.93;;;1.48;;
21492;SDS011;10908;50.690;4.400;2022-11-23T13:57:35;2.90;;;1.00;;
21492;SDS011;10908;50.690;4.400;2022-11-23T14:11:35;6.25;;;1.63;;
21492;SDS011;10908;50.690;4.400;2022-11-23T14:14:21;5.05;;;1.42;;
21492;SDS011;10908;50.690;4.400;2022-11-23T14:19:56;6.07;;;1.27;;
21492;SDS011;10908;50.690;4.400;2022-11-23T14:25:43;4.03;;;1.40;;
21492;SDS011;10908;50.690;4.400;2022-11-23T14:34:00;3.63;;;1.20;;
21492;SDS011;10908;50.690;4.400;2022-11-23T14:36:43;4.00;;;1.33;;
21492;SDS011;10908;50.690;4.400;2022-11-23T14:42:10;5.72;;;1.25;;
21492;SDS011;10908;50.690;4.400;2022-11-23T14:44:39;5.45;;;1.25;;
21492;SDS011;10908;50.690;4.400;2022-11-23T14:47:07;5.00;;;1.40;;
21492;SDS011;10908;50.690;4.400;2022-11-23T14:49:34;4.97;;;1.40;;
21492;SDS011;10908;50.690;4.400;2022-11-23T14:52:00;3.92;;;1.20;;
21492;SDS011;10908;50.690;4.400;2022-11-23T14:54:28;5.28;;;1.42;;
21492;SDS011;10908;50.690;4.400;2022-11-23T14:56:58;4.40;;;1.50;;
21492;SDS011;10908;50.690;4.400;2022-11-23T14:59:36;6.00;;;1.30;;
21492;SDS011;10908;50.690;4.400;2022-11-23T15:02:04;5.03;;;1.60;;
21492;SDS011;10908;50.690;4.400;2022-11-23T15:04:44;7.30;;;1.80;;
21492;SDS011;10908;50.690;4.400;2022-11-23T15:07:21;6.18;;;1.90;;
21492;SDS011;10908;50.690;4.400;2022-11-23T15:09:50;5.90;;;1.88;;
21492;SDS011;10908;50.690;4.400;2022-11-23T15:12:46;6.25;;;1.75;;
21492;SDS011;10908;50.690;4.400;2022-11-23T15:15:21;5.18;;;2.03;;
21492;SDS011;10908;50.690;4.400;2022-11-23T15:17:52;5.82;;;1.90;;
21492;SDS011;10908;50.690;4.400;2022-11-23T15:20:19;4.47;;;1.30;;
21492;SDS011;10908;50.690;4.400;2022-11-23T15:22:47;5.30;;;1.52;;
21492;SDS011;10908;50.690;4.400;2022-11-23T15:25:14;4.10;;;1.42;;
21492;SDS011;10908;50.690;4.400;2022-11-23T15:27:42;5.60;;;1.95;;
21492;SDS011;10908;50.690;4.400;2022-11-23T15:30:13;5.20;;;1.95;;
21492;SDS011;10908;50.690;4.400;2022-11-23T15:32:40;5.15;;;2.10;;
21492;SDS011;10908;50.690;4.400;2022-11-23T15:35:07;7.05;;;2.20;;
21492;SDS011;10908;50.690;4.400;2022-11-23T15:37:40;7.10;;;2.55;;
21492;SDS011;10908;50.690;4.400;2022-11-23T15:40:16;7.78;;;2.80;;
21492;SDS011;10908;50.690;4.400;2022-11-23T15:56:31;5.97;;;2.50;;
21492;SDS011;10908;50.690;4.400;2022-11-23T15:59:00;11.55;;;2.25;;
21492;SDS011;10908;50.690;4.400;2022-11-23T16:01:28;6.45;;;1.90;;
21492;SDS011;10908;50.690;4.400;2022-11-23T16:03:57;6.70;;;2.13;;
21492;SDS011;10908;50.690;4.400;2022-11-23T16:06:41;9.35;;;2.03;;
21492;SDS011;10908;50.690;4.400;2022-11-23T16:12:23;7.72;;;2.80;;
21492;SDS011;10908;50.690;4.400;2022-11-23T16:14:50;7.32;;;2.35;;
21492;SDS011;10908;50.690;4.400;2022-11-23T16:19:49;9.15;;;3.03;;
21492;SDS011;10908;50.690;4.400;2022-11-23T16:22:19;9.40;;;2.70;;
21492;SDS011;10908;50.690;4.400;2022-11-23T16:24:57;8.02;;;2.92;;
21492;SDS011;10908;50.690;4.400;2022-11-23T16:27:43;8.93;;;3.00;;
21492;SDS011;10908;50.690;4.400;2022-11-23T16:30:25;7.30;;;3.03;;
21492;SDS011;10908;50.690;4.400;2022-11-23T16:32:58;8.70;;;3.42;;
21492;SDS011;10908;50.690;4.400;2022-11-23T16:35:24;11.93;;;4.30;;
21492;SDS011;10908;50.690;4.400;2022-11-23T16:37:49;13.48;;;4.32;;
21492;SDS011;10908;50.690;4.400;2022-11-23T16:40:15;13.85;;;4.40;;
21492;SDS011;10908;50.690;4.400;2022-11-23T16:42:41;12.55;;;4.30;;
21492;SDS011;10908;50.690;4.400;2022-11-23T16:45:07;13.30;;;3.67;;
21492;SDS011;10908;50.690;4.400;2022-11-23T16:47:33;11.75;;;4.45;;
21492;SDS011;10908;50.690;4.400;2022-11-23T16:49:59;13.57;;;4.88;;
21492;SDS011;10908;50.690;4.400;2022-11-23T16:52:25;14.40;;;5.50;;
21492;SDS011;10908;50.690;4.400;2022-11-23T16:54:51;16.80;;;4.85;;
21492;SDS011;10908;50.690;4.400;2022-11-23T16:57:27;12.88;;;4.55;;
21492;SDS011;10908;50.690;4.400;2022-11-23T16:59:55;12.30;;;4.50;;
21492;SDS011;10908;50.690;4.400;2022-11-23T17:02:20;14.32;;;4.85;;
21492;SDS011;10908;50.690;4.400;2022-11-23T17:04:46;11.70;;;3.55;;
21492;SDS011;10908;50.690;4.400;2022-11-23T17:07:12;19.35;;;5.43;;
21492;SDS011;10908;50.690;4.400;2022-11-23T17:09:38;14.50;;;4.68;;
21492;SDS011;10908;50.690;4.400;2022-11-23T17:12:04;13.18;;;4.80;;
21492;SDS011;10908;50.690;4.400;2022-11-23T17:14:37;13.27;;;4.35;;
21492;SDS011;10908;50.690;4.400;2022-11-23T17:17:03;14.07;;;5.28;;
21492;SDS011;10908;50.690;4.400;2022-11-23T17:19:29;15.93;;;4.47;;